Catlett, Virginia
Current Conditions -  °F | °C
As of 6:55 PM on Monday 22 Dec 2014 (Local Time) from KHWY Reporting Station
Drizzle Drizzle  
Wind Chill: 31°   Ceiling: 500
Heat Index: 35°   Visibility: 3mi
Dew Point: 35°   Wind: 5mph
Humidity: 100%   Direction: 360°N
Pressure: 30.16"   Gusts: NA
Location:  38.65°N, 77.64°W
Report Text: KHWY 222355Z AUTO 36004KT 3SM DZ BKN005 OVC021 02/02 A3016 RMK AO2 P0002 60011 T00150015 10016 20011
Loading
Personal Weather Stations






























Interactive Weather Map New forecast layout! Learn more

10-Day Weather Forecast

Advertisements
Track Severe Weather on mobile